Time;durP1;ratioP1;P1;durP2;ratioP2;P2;SDS_P1;SDS_P2;PMS_P1;PMS_P2;Temp;Humidity;BMP_temperature;BMP_pressure;BME280_temperature;BME280_humidity;BME280_pressure;Samples;Min_cycle;Max_cycle;Signal;HPM_P1;HPM_P2
2022/11/14 00:01:34;;;;;;;52.00;29.35;;;3.00;99.90;;;;;;6278994;22;20114;-86
2022/11/14 00:04:21;;;;;;;55.80;29.60;;;3.10;99.90;;;;;;6257167;22;20023;-86
2022/11/14 00:07:15;;;;;;;51.17;29.63;;;3.10;99.90;;;;;;6258621;22;20153;-86
2022/11/14 00:10:03;;;;;;;54.10;29.85;;;3.00;99.90;;;;;;6276518;22;20055;-86
2022/11/14 00:12:50;;;;;;;57.08;29.25;;;3.00;99.90;;;;;;6280696;22;20103;-86
2022/11/14 00:15:37;;;;;;;57.10;29.83;;;3.00;99.90;;;;;;6278122;22;20020;-85
2022/11/14 00:18:25;;;;;;;52.65;29.73;;;3.00;99.90;;;;;;6258079;22;20514;-86
2022/11/14 00:21:12;;;;;;;61.28;31.05;;;3.00;99.90;;;;;;6257177;22;20027;-86
2022/11/14 00:24:02;;;;;;;51.90;28.00;;;2.90;99.90;;;;;;6275736;22;20098;-86
2022/11/14 00:26:52;;;;;;;50.28;27.50;;;2.80;99.90;;;;;;6279588;22;20344;-86
2022/11/14 00:29:40;;;;;;;54.55;28.70;;;2.80;99.90;;;;;;6256983;22;20108;-87
2022/11/14 00:32:29;;;;;;;49.05;26.85;;;2.70;99.90;;;;;;6256146;22;20112;-87
2022/11/14 00:35:19;;;;;;;45.75;25.40;;;2.70;99.90;;;;;;6275040;22;20135;-87
2022/11/14 00:38:06;;;;;;;47.15;26.17;;;2.60;99.90;;;;;;6278383;22;20019;-89
2022/11/14 00:40:53;;;;;;;53.92;28.13;;;2.60;99.90;;;;;;6278266;22;20447;-87
2022/11/14 00:43:41;;;;;;;51.25;27.38;;;2.60;99.90;;;;;;6277020;22;20027;-88
2022/11/14 00:46:30;;;;;;;50.63;27.13;;;2.60;99.90;;;;;;6242443;22;20050;-88
2022/11/14 00:49:17;;;;;;;54.92;29.00;;;2.60;99.90;;;;;;6290027;22;20030;-87
2022/11/14 00:52:04;;;;;;;56.03;31.00;;;2.60;99.90;;;;;;6290276;22;20417;-86
2022/11/14 00:54:54;;;;;;;59.83;30.23;;;2.70;99.90;;;;;;6276954;22;20024;-86
2022/11/14 00:57:41;;;;;;;61.55;31.73;;;2.70;99.90;;;;;;6278208;22;20130;-87
2022/11/14 01:00:28;;;;;;;58.30;29.98;;;2.70;99.90;;;;;;6278921;22;20027;-86
2022/11/14 01:03:15;;;;;;;67.95;33.22;;;2.70;99.90;;;;;;6276146;22;20069;-87
2022/11/14 01:06:06;;;;;;;67.93;32.60;;;2.60;99.90;;;;;;6276034;22;20038;-86
2022/11/14 01:08:53;;;;;;;59.78;29.42;;;2.60;99.90;;;;;;6276230;22;20514;-86
2022/11/14 01:11:40;;;;;;;64.45;33.15;;;2.60;99.90;;;;;;6254126;22;20019;-87
2022/11/14 01:14:27;;;;;;;73.55;33.15;;;2.60;99.90;;;;;;6274703;22;20373;-86
2022/11/14 01:17:15;;;;;;;63.13;31.95;;;2.70;99.90;;;;;;6256396;22;20027;-87
2022/11/14 01:20:03;;;;;;;71.15;33.78;;;2.80;99.90;;;;;;6255662;22;20042;-85
2022/11/14 01:22:50;;;;;;;77.45;36.08;;;2.90;99.90;;;;;;6257061;22;20034;-86
2022/11/14 01:25:39;;;;;;;74.13;33.88;;;2.90;99.90;;;;;;6278746;22;20038;-87
2022/11/14 01:28:26;;;;;;;73.45;34.22;;;3.00;99.90;;;;;;6277052;22;20023;-85
2022/11/14 01:31:20;;;;;;;90.45;36.08;;;3.00;99.90;;;;;;6254784;22;20307;-87
2022/11/14 01:34:07;;;;;;;86.95;35.53;;;3.00;99.90;;;;;;6276836;22;20055;-87
2022/11/14 01:36:55;;;;;;;85.13;34.63;;;3.00;99.90;;;;;;6259762;22;20396;-87
2022/11/14 01:39:44;;;;;;;78.68;35.65;;;2.90;99.90;;;;;;6285111;22;20023;-86
2022/11/14 01:42:31;;;;;;;117.70;35.55;;;3.00;99.90;;;;;;6258196;22;20055;-85
2022/11/14 01:45:52;;;;;;;110.20;38.45;;;3.00;99.90;;;;;;6275764;22;20024;-87
2022/11/14 01:49:02;;;;;;;89.93;36.30;;;3.00;99.90;;;;;;6273939;22;20038;-87
2022/11/14 01:52:07;;;;;;;86.45;36.08;;;3.00;99.90;;;;;;6276564;22;20034;-86
2022/11/14 01:55:01;;;;;;;85.57;36.10;;;3.00;99.90;;;;;;6276561;22;20023;-87
2022/11/14 01:57:48;;;;;;;91.43;36.78;;;3.00;99.90;;;;;;6274660;22;20030;-87
2022/11/14 02:00:36;;;;;;;99.03;37.72;;;2.90;99.90;;;;;;6253650;22;20033;-87
2022/11/14 02:03:25;;;;;;;92.70;36.83;;;2.90;99.90;;;;;;6253973;22;20098;-86
2022/11/14 02:06:15;;;;;;;92.72;37.40;;;2.80;99.90;;;;;;6252551;22;20099;-86
2022/11/14 02:09:05;;;;;;;100.45;38.92;;;2.80;99.90;;;;;;6255674;22;20107;-87
2022/11/14 02:11:54;;;;;;;100.32;36.97;;;2.80;99.90;;;;;;6273618;22;20071;-87
2022/11/14 02:14:46;;;;;;;102.05;36.35;;;2.80;99.90;;;;;;6277673;22;20020;-88
2022/11/14 02:17:34;;;;;;;101.63;37.45;;;2.90;99.90;;;;;;6274647;22;20030;-87
2022/11/14 02:20:27;;;;;;;102.13;37.58;;;2.90;99.90;;;;;;6255360;22;20028;-87
2022/11/14 02:23:25;;;;;;;98.18;37.95;;;2.90;99.90;;;;;;6277707;22;20020;-87
2022/11/14 02:26:16;;;;;;;97.50;40.28;;;2.80;99.90;;;;;;6282794;22;20121;-87
2022/11/14 02:29:06;;;;;;;101.82;39.17;;;2.70;99.90;;;;;;6267014;22;20055;-87
2022/11/14 02:31:53;;;;;;;171.73;41.03;;;2.70;99.90;;;;;;6290554;22;20047;-87
2022/11/14 02:34:40;;;;;;;167.90;44.58;;;2.60;99.90;;;;;;6272937;22;20019;-87
2022/11/14 02:37:30;;;;;;;574.80;59.13;;;2.50;99.90;;;;;;6282283;22;20312;-86
2022/11/14 02:40:17;;;;;;;161.25;38.83;;;2.40;99.90;;;;;;6279842;22;20037;-86
2022/11/14 02:43:04;;;;;;;116.65;37.53;;;2.40;99.90;;;;;;6278477;22;20024;-88
2022/11/14 02:45:52;;;;;;;84.88;35.20;;;2.30;99.90;;;;;;6279467;22;20077;-88
2022/11/14 02:48:39;;;;;;;102.88;36.33;;;2.30;99.90;;;;;;6258052;22;20043;-88
2022/11/14 02:51:26;;;;;;;114.95;37.42;;;2.30;99.90;;;;;;6257987;22;20069;-88
2022/11/14 02:54:13;;;;;;;105.68;35.75;;;2.30;99.90;;;;;;6235785;22;20677;-87
2022/11/14 02:57:05;;;;;;;122.32;37.25;;;2.20;99.90;;;;;;6276845;22;20024;-86
2022/11/14 02:59:52;;;;;;;136.75;39.15;;;2.20;99.90;;;;;;6277483;22;20468;-87
2022/11/14 03:02:39;;;;;;;488.25;54.90;;;2.30;99.90;;;;;;6279449;22;20024;-87
2022/11/14 03:05:26;;;;;;;210.60;42.35;;;2.30;99.90;;;;;;6278798;22;20020;-86
2022/11/14 03:08:17;;;;;;;333.42;45.70;;;2.30;99.90;;;;;;6258499;22;20031;-86
2022/11/14 03:11:08;;;;;;;419.30;45.28;;;2.30;99.90;;;;;;6254353;22;20462;-86
2022/11/14 03:13:58;;;;;;;778.25;72.05;;;2.40;99.90;;;;;;6275544;22;20386;-88
2022/11/14 03:16:45;;;;;;;181.32;37.10;;;2.30;99.90;;;;;;6279435;22;20027;-89
2022/11/14 03:19:33;;;;;;;159.85;39.15;;;2.30;99.90;;;;;;6278498;22;20027;-88
2022/11/14 03:22:20;;;;;;;205.27;39.83;;;2.40;99.90;;;;;;6258173;22;20099;-88
2022/11/14 03:25:07;;;;;;;155.13;39.33;;;2.30;99.90;;;;;;6277227;22;20041;-86
2022/11/14 03:27:55;;;;;;;213.40;40.85;;;2.30;99.90;;;;;;6257239;22;20038;-88
2022/11/14 03:30:42;;;;;;;264.88;40.97;;;2.30;99.90;;;;;;6277032;22;20026;-88
2022/11/14 03:33:30;;;;;;;374.17;47.65;;;2.40;99.90;;;;;;6276780;22;20019;-88
2022/11/14 03:36:17;;;;;;;409.63;50.58;;;2.30;99.90;;;;;;6264702;22;20079;-87
2022/11/14 03:39:05;;;;;;;175.35;40.30;;;2.40;99.90;;;;;;6284179;22;20170;-87
2022/11/14 03:41:53;;;;;;;147.18;39.05;;;2.40;99.90;;;;;;6275502;22;20034;-88
2022/11/14 03:44:42;;;;;;;214.50;43.58;;;2.30;99.90;;;;;;6256805;22;20024;-87
2022/11/14 03:47:29;;;;;;;150.05;39.45;;;2.40;99.90;;;;;;6279852;22;20095;-88
2022/11/14 03:50:17;;;;;;;196.10;43.17;;;2.40;99.90;;;;;;6275087;22;20435;-89
2022/11/14 03:53:04;;;;;;;335.27;49.15;;;2.30;99.90;;;;;;6256863;22;20020;-88
2022/11/14 03:55:52;;;;;;;125.15;39.63;;;2.40;99.90;;;;;;6279083;22;20028;-87
2022/11/14 03:58:39;;;;;;;141.52;39.20;;;2.40;99.90;;;;;;6256906;22;20051;-88
2022/11/14 04:01:29;;;;;;;354.58;51.30;;;2.30;99.90;;;;;;6257474;22;20106;-88
2022/11/14 04:04:16;;;;;;;296.50;45.80;;;2.40;99.90;;;;;;6277931;22;20398;-88
2022/11/14 04:07:05;;;;;;;131.20;36.65;;;2.30;99.90;;;;;;6256758;22;20027;-89
2022/11/14 04:09:55;;;;;;;347.08;45.10;;;2.30;99.90;;;;;;6277829;22;20020;-87
2022/11/14 04:12:50;;;;;;;139.38;37.17;;;2.20;99.90;;;;;;6256546;22;20336;-88
2022/11/14 04:15:37;;;;;;;138.05;35.17;;;2.20;99.90;;;;;;6277810;22;20284;-87
2022/11/14 04:18:25;;;;;;;292.08;41.83;;;2.10;99.90;;;;;;6276436;22;20094;-89
2022/11/14 04:21:13;;;;;;;332.65;43.63;;;2.10;99.90;;;;;;6274882;22;20023;-87
2022/11/14 04:24:01;;;;;;;427.05;43.50;;;2.00;99.90;;;;;;6257499;22;20409;-88
2022/11/14 04:26:54;;;;;;;109.15;31.15;;;2.00;99.90;;;;;;6276894;22;20038;-88
2022/11/14 04:29:41;;;;;;;480.02;45.05;;;1.90;99.90;;;;;;6255660;22;20369;-88
2022/11/14 04:32:28;;;;;;;164.65;35.33;;;1.80;99.90;;;;;;6276574;22;20087;-89
2022/11/14 04:35:18;;;;;;;273.98;39.25;;;1.90;99.90;;;;;;6257257;22;20019;-87
2022/11/14 04:38:05;;;;;;;240.57;37.40;;;1.90;99.90;;;;;;6253547;22;20059;-87
2022/11/14 04:40:55;;;;;;;235.43;36.70;;;1.90;99.90;;;;;;6278402;22;20046;-88
2022/11/14 04:43:45;;;;;;;260.23;38.85;;;1.90;99.90;;;;;;6254582;22;20028;-88
2022/11/14 04:46:36;;;;;;;286.50;37.78;;;1.90;99.90;;;;;;6275254;22;20058;-88
2022/11/14 04:49:24;;;;;;;151.15;34.45;;;1.90;99.90;;;;;;6256752;22;20429;-87
2022/11/14 04:52:11;;;;;;;111.60;35.80;;;1.90;99.90;;;;;;6277513;22;20332;-88
2022/11/14 04:54:58;;;;;;;200.13;37.33;;;1.80;99.90;;;;;;6256985;22;20023;-88
2022/11/14 04:57:46;;;;;;;311.95;41.00;;;1.70;99.90;;;;;;6274400;22;20439;-88
2022/11/14 05:00:35;;;;;;;132.25;36.45;;;1.60;99.90;;;;;;6255752;22;20126;-88
2022/11/14 05:03:23;;;;;;;127.78;34.10;;;1.60;99.90;;;;;;6277730;22;20038;-87
2022/11/14 05:06:10;;;;;;;105.47;35.03;;;1.50;99.90;;;;;;6275292;22;20028;-88
2022/11/14 05:09:00;;;;;;;118.32;34.83;;;1.50;99.90;;;;;;6255402;22;20028;-88
2022/11/14 05:11:49;;;;;;;102.15;32.97;;;1.40;99.90;;;;;;6257110;22;20106;-88
2022/11/14 05:14:39;;;;;;;89.85;32.45;;;1.40;99.90;;;;;;6256751;22;20023;-88
2022/11/14 05:17:28;;;;;;;98.60;31.70;;;1.30;99.90;;;;;;6254345;22;20035;-89
2022/11/14 05:20:18;;;;;;;103.25;31.00;;;1.30;99.90;;;;;;6275424;22;20019;-88
2022/11/14 05:23:05;;;;;;;70.43;27.75;;;1.20;99.90;;;;;;6275758;22;20031;-88
2022/11/14 05:26:11;;;;;;;76.53;28.23;;;1.10;99.90;;;;;;6275806;22;20027;-88
2022/11/14 05:28:58;;;;;;;74.45;29.30;;;1.10;99.90;;;;;;6277358;22;20045;-88
2022/11/14 05:31:46;;;;;;;78.95;30.45;;;1.10;99.90;;;;;;6255093;22;20024;-88
2022/11/14 05:34:35;;;;;;;101.28;33.92;;;1.20;99.90;;;;;;6256154;22;20030;-88
2022/11/14 05:37:22;;;;;;;95.18;32.15;;;1.20;99.90;;;;;;6279506;22;20081;-86
2022/11/14 05:40:10;;;;;;;80.38;31.33;;;1.20;99.90;;;;;;6276251;22;20383;-85
2022/11/14 05:42:57;;;;;;;85.00;31.92;;;1.20;99.90;;;;;;6274347;22;20023;-86
2022/11/14 05:45:45;;;;;;;126.50;34.30;;;1.30;99.90;;;;;;6275027;22;20034;-86
2022/11/14 05:48:34;;;;;;;97.72;33.28;;;1.40;99.90;;;;;;6254459;22;20024;-86
2022/11/14 05:51:23;;;;;;;89.15;31.60;;;1.30;99.90;;;;;;6275953;22;20115;-86
2022/11/14 05:54:11;;;;;;;81.18;30.92;;;1.30;99.90;;;;;;6253331;22;20094;-86
2022/11/14 05:57:00;;;;;;;81.72;32.20;;;1.30;99.90;;;;;;6276262;22;20441;-86
2022/11/14 05:59:47;;;;;;;88.97;34.22;;;1.30;99.90;;;;;;6256762;22;20298;-86
2022/11/14 06:02:34;;;;;;;88.18;34.03;;;1.50;99.90;;;;;;6279913;22;20030;-87
2022/11/14 06:05:24;;;;;;;95.13;32.45;;;1.60;99.90;;;;;;6256380;22;20055;-87
2022/11/14 06:08:12;;;;;;;93.85;33.05;;;1.70;99.90;;;;;;6276157;22;20032;-86
2022/11/14 06:11:12;;;;;;;110.07;34.65;;;1.70;99.90;;;;;;6277822;22;20408;-87
2022/11/14 06:13:59;;;;;;;90.15;32.10;;;1.60;99.90;;;;;;6277175;22;20418;-89
2022/11/14 06:16:48;;;;;;;77.68;31.50;;;1.50;99.90;;;;;;6262843;22;20426;-88
2022/11/14 06:19:39;;;;;;;84.65;31.65;;;1.60;99.90;;;;;;6260189;22;20055;-87
2022/11/14 06:22:26;;;;;;;77.88;32.47;;;1.60;99.90;;;;;;6253524;22;20051;-87
2022/11/14 06:25:13;;;;;;;81.35;31.50;;;1.70;99.90;;;;;;6255563;22;20024;-88
2022/11/14 06:28:00;;;;;;;71.78;30.95;;;1.80;99.90;;;;;;6277844;22;20486;-87
2022/11/14 06:30:47;;;;;;;88.40;33.60;;;1.90;99.90;;;;;;6277221;22;20411;-88
2022/11/14 06:33:37;;;;;;;79.65;32.22;;;1.90;99.90;;;;;;6278398;22;20098;-87
2022/11/14 06:36:25;;;;;;;86.18;33.42;;;1.90;99.90;;;;;;6279241;22;20051;-88
2022/11/14 06:39:12;;;;;;;81.78;33.17;;;2.10;99.90;;;;;;6259612;22;20024;-86
2022/11/14 06:41:59;;;;;;;84.38;34.35;;;2.30;99.90;;;;;;6274915;22;20037;-87
2022/11/14 06:44:46;;;;;;;84.05;35.05;;;2.30;99.90;;;;;;6274361;22;20042;-86
2022/11/14 06:47:33;;;;;;;81.10;34.60;;;2.40;99.90;;;;;;6251780;22;20055;-86
2022/11/14 06:50:20;;;;;;;83.90;36.22;;;2.80;99.90;;;;;;6252502;22;20077;-86
2022/11/14 06:53:07;;;;;;;91.85;36.63;;;3.20;99.90;;;;;;6273770;22;20055;-85
2022/11/14 06:55:57;;;;;;;84.50;36.10;;;3.50;99.90;;;;;;6273391;22;20364;-87
2022/11/14 06:58:50;;;;;;;84.78;36.50;;;3.70;99.90;;;;;;6277414;22;20103;-87
2022/11/14 07:01:37;;;;;;;83.85;37.20;;;3.90;99.90;;;;;;6256231;22;20042;-87
2022/11/14 07:04:24;;;;;;;86.43;38.58;;;3.90;99.90;;;;;;6255876;22;20033;-87
2022/11/14 07:07:11;;;;;;;84.25;37.03;;;3.90;99.90;;;;;;6274784;22;20155;-88
2022/11/14 07:09:58;;;;;;;78.82;36.65;;;3.90;99.90;;;;;;6274097;22;20035;-86
2022/11/14 07:12:48;;;;;;;84.57;37.75;;;3.90;99.90;;;;;;6256576;22;20068;-86
2022/11/14 07:15:38;;;;;;;80.90;34.88;;;3.90;99.90;;;;;;6236113;22;20052;-88
2022/11/14 07:18:25;;;;;;;77.50;36.05;;;3.90;99.90;;;;;;6277765;22;20028;-87
2022/11/14 07:21:18;;;;;;;73.00;35.60;;;3.90;99.90;;;;;;6287682;22;20050;-87
2022/11/14 07:24:05;;;;;;;58.47;27.48;;;3.90;99.90;;;;;;6288411;22;20031;-86
2022/11/14 07:26:54;;;;;;;68.30;32.25;;;3.80;99.90;;;;;;6267962;22;20035;-86
2022/11/14 07:29:44;;;;;;;68.32;36.28;;;3.70;99.90;;;;;;6272704;22;20046;-87
2022/11/14 07:32:43;;;;;;;;;;;;;;;;;;;;;
2022/11/14 07:36:26;;;;;;;68.60;32.63;;;3.60;99.90;;;;;;6231268;22;20019;-86
2022/11/14 07:39:12;;;;;;;57.85;30.35;;;3.70;99.90;;;;;;6278118;22;20024;-88
2022/11/14 07:46:38;;;;;;;;;;;;;;;;;;;;;
2022/11/14 07:49:52;;;;;;;46.28;24.60;;;4.30;99.90;;;;;;6275777;22;20087;-88
2022/11/14 07:52:56;;;;;;;40.08;22.48;;;4.60;99.90;;;;;;6257301;22;20027;-86
2022/11/14 07:55:43;;;;;;;34.70;18.95;;;4.90;99.90;;;;;;6278272;22;20019;-83
2022/11/14 07:58:33;;;;;;;24.42;15.80;;;5.20;99.90;;;;;;6278789;22;20020;-86
2022/11/14 08:01:23;;;;;;;14.38;9.48;;;5.40;99.90;;;;;;6276243;22;20032;-84
2022/11/14 08:04:13;;;;;;;13.07;8.13;;;5.90;99.90;;;;;;6257259;22;20063;-87
2022/11/14 08:07:01;;;;;;;11.88;7.60;;;6.30;99.90;;;;;;6255831;22;20263;-86
2022/11/14 08:09:48;;;;;;;13.02;7.38;;;6.30;99.90;;;;;;6278574;22;20081;-88
2022/11/14 08:12:40;;;;;;;11.63;5.85;;;6.30;99.90;;;;;;6277526;22;20024;-87
2022/11/14 08:15:30;;;;;;;8.55;4.53;;;6.60;99.90;;;;;;6277538;22;20042;-88
2022/11/14 08:18:18;;;;;;;6.88;4.72;;;6.90;99.90;;;;;;6253738;22;20486;-86
2022/11/14 08:21:06;;;;;;;6.35;3.88;;;7.10;99.90;;;;;;6253216;22;20031;-89
2022/11/14 08:23:53;;;;;;;4.60;3.40;;;7.20;99.90;;;;;;6256596;22;20019;-86
2022/11/14 08:26:41;;;;;;;6.82;3.13;;;7.40;99.90;;;;;;6277370;22;20126;-85
2022/11/14 08:29:33;;;;;;;10.63;3.20;;;7.40;99.90;;;;;;6276738;22;20120;-87
2022/11/14 08:32:23;;;;;;;3.73;2.30;;;7.30;99.90;;;;;;6278842;22;20020;-85
2022/11/14 08:35:29;;;;;;;3.42;2.90;;;7.50;99.90;;;;;;6282621;22;20020;-88
2022/11/14 08:38:17;;;;;;;2.90;2.53;;;7.50;99.90;;;;;;6258363;22;20034;-85
2022/11/14 08:41:05;;;;;;;3.60;2.45;;;7.60;99.90;;;;;;6258882;22;20423;-84
2022/11/14 08:43:52;;;;;;;5.22;2.65;;;7.70;99.90;;;;;;6274934;22;20459;-82
2022/11/14 08:46:40;;;;;;;3.47;2.67;;;7.60;99.90;;;;;;6255255;22;20028;-84
2022/11/14 08:49:30;;;;;;;5.72;2.70;;;7.60;99.90;;;;;;6254995;22;20035;-85
2022/11/14 08:52:17;;;;;;;3.53;2.78;;;7.60;99.90;;;;;;6253066;22;20055;-84
2022/11/14 08:55:05;;;;;;;3.40;2.40;;;7.60;99.90;;;;;;6275896;22;20019;-86
2022/11/14 08:57:52;;;;;;;3.75;2.78;;;7.60;99.90;;;;;;6276555;22;20024;-85
2022/11/14 09:00:42;;;;;;;3.42;2.72;;;7.60;99.90;;;;;;6277559;22;20028;-85
2022/11/14 09:03:34;;;;;;;5.68;3.40;;;7.50;99.90;;;;;;6253981;22;20027;-85
2022/11/14 09:06:21;;;;;;;9.35;3.63;;;7.40;99.90;;;;;;6275698;22;20257;-85
2022/11/14 09:09:08;;;;;;;7.65;3.03;;;7.30;99.90;;;;;;6255161;22;20032;-85
2022/11/14 09:11:57;;;;;;;5.55;3.47;;;7.30;99.90;;;;;;6253758;22;20439;-83
2022/11/14 09:14:47;;;;;;;5.32;3.40;;;7.30;99.90;;;;;;6277435;22;20026;-82
2022/11/14 09:17:34;;;;;;;5.93;3.47;;;7.30;99.90;;;;;;6277372;22;20095;-84
2022/11/14 09:20:23;;;;;;;4.93;3.63;;;7.30;99.90;;;;;;6256292;22;20036;-84
2022/11/14 09:23:18;;;;;;;5.30;3.53;;;7.30;99.90;;;;;;6254407;22;20023;-83
2022/11/14 09:26:09;;;;;;;6.30;4.10;;;7.30;99.90;;;;;;6251803;22;20031;-85
2022/11/14 09:28:56;;;;;;;6.32;3.60;;;7.30;99.90;;;;;;6277222;22;20020;-86
2022/11/14 09:31:44;;;;;;;5.45;3.63;;;7.30;99.90;;;;;;6275618;22;20059;-84
2022/11/14 09:34:32;;;;;;;7.47;3.70;;;7.40;99.90;;;;;;6253783;22;20023;-84
2022/11/14 09:37:22;;;;;;;5.00;3.63;;;7.40;99.90;;;;;;6277289;22;20038;-85
2022/11/14 09:40:13;;;;;;;4.97;3.67;;;7.40;99.90;;;;;;6277950;22;20041;-84
2022/11/14 09:43:31;;;;;;;5.53;3.65;;;7.40;99.90;;;;;;6252669;22;20508;-84
2022/11/14 09:46:23;;;;;;;5.25;3.42;;;7.50;99.90;;;;;;6254374;22;20470;-84
2022/11/14 09:49:23;;;;;;;5.40;3.17;;;7.60;99.90;;;;;;6254443;22;20099;-84
2022/11/14 09:52:19;;;;;;;5.90;3.97;;;7.70;99.90;;;;;;6276593;22;20027;-85
2022/11/14 09:55:20;;;;;;;4.68;3.03;;;7.80;99.90;;;;;;6274807;22;20024;-84
2022/11/14 09:58:14;;;;;;;3.78;2.88;;;7.90;99.90;;;;;;6277515;22;20055;-85
2022/11/14 10:01:07;;;;;;;3.80;2.65;;;8.00;99.90;;;;;;6255097;22;20019;-84
2022/11/14 10:04:18;;;;;;;3.88;3.25;;;8.10;99.90;;;;;;6256217;22;20102;-84
2022/11/14 10:07:36;;;;;;;3.70;2.97;;;8.30;99.90;;;;;;6254308;22;20050;-83
2022/11/14 10:10:42;;;;;;;3.28;2.05;;;8.60;99.90;;;;;;6255345;22;20028;-83
2022/11/14 10:14:03;;;;;;;3.30;2.20;;;8.80;99.90;;;;;;6253984;22;20055;-83
2022/11/14 10:17:17;;;;;;;8.75;5.43;;;8.90;99.90;;;;;;6255531;22;20020;-84
2022/11/14 10:20:17;;;;;;;2.85;1.98;;;8.90;99.90;;;;;;6253968;22;20276;-82
2022/11/14 10:23:33;;;;;;;3.05;2.47;;;8.90;48.40;;;;;;6256111;22;20055;-82
2022/11/14 10:26:30;;;;;;;3.33;2.22;;;8.80;1.00;;;;;;6273699;22;20462;-84
2022/11/14 10:29:18;;;;;;;2.78;2.33;;;8.70;1.00;;;;;;6276710;22;20019;-84
2022/11/14 10:32:40;;;;;;;2.22;2.00;;;8.60;12.10;;;;;;6256025;22;20024;-86
2022/11/14 10:35:49;;;;;;;3.15;1.98;;;8.60;1.00;;;;;;6254844;22;20031;-83
2022/11/14 10:38:55;;;;;;;2.20;1.67;;;8.90;99.90;;;;;;6276527;22;20081;-84
2022/11/14 10:41:54;;;;;;;3.45;2.15;;;9.20;99.90;;;;;;6277605;22;20323;-83
2022/11/14 10:44:58;;;;;;;3.25;2.10;;;9.10;99.90;;;;;;6253866;22;20478;-86
2022/11/14 10:47:57;;;;;;;2.03;1.83;;;9.00;1.00;;;;;;6252734;22;20024;-84
2022/11/14 10:50:58;;;;;;;2.63;1.58;;;9.00;1.00;;;;;;6257380;22;20034;-83
2022/11/14 10:53:57;;;;;;;2.45;1.75;;;9.40;1.00;;;;;;6279048;22;20023;-84
2022/11/14 10:56:49;;;;;;;1.92;1.83;;;9.60;99.90;;;;;;6254920;22;20023;-85
2022/11/14 10:59:37;;;;;;;;;;;9.70;99.90;;;;;;6279926;22;20442;-85
2022/11/14 11:02:25;;;;;;;2.00;1.77;;;9.70;99.90;;;;;;6278867;22;19915;-85
2022/11/14 11:05:18;;;;;;;1.95;1.70;;;9.60;1.00;;;;;;6258155;22;20031;-84
2022/11/14 11:11:30;;;;;;;1.65;1.55;;;9.60;87.80;;;;;;6276409;22;20143;-85
2022/11/14 11:14:18;;;;;;;1.65;1.55;;;9.60;1.00;;;;;;6278301;22;20124;-85
2022/11/14 11:17:11;;;;;;;1.65;1.50;;;9.60;99.90;;;;;;6256851;22;20027;-87
2022/11/14 11:20:39;;;;;;;2.13;1.77;;;9.50;99.90;;;;;;6254886;22;20030;-85
2022/11/14 11:23:27;;;;;;;2.67;1.80;;;9.50;99.90;;;;;;6254619;22;20026;-84
2022/11/14 11:26:23;;;;;;;1.80;1.60;;;9.50;99.90;;;;;;6256807;22;20024;-84
2022/11/14 11:29:10;;;;;;;2.92;1.70;;;9.50;99.90;;;;;;6256821;22;20024;-84
2022/11/14 11:32:00;;;;;;;6.03;1.92;;;9.50;77.90;;;;;;6255185;22;20037;-84
2022/11/14 11:34:52;;;;;;;5.55;2.50;;;9.50;1.00;;;;;;6256653;22;20028;-83
2022/11/14 11:37:53;;;;;;;2.08;1.77;;;9.50;1.00;;;;;;6255479;22;20034;-84
2022/11/14 11:40:47;;;;;;;2.35;1.40;;;9.50;1.00;;;;;;6254804;22;20023;-83
2022/11/14 11:43:59;;;;;;;1.90;1.50;;;9.50;1.00;;;;;;6255725;22;20461;-82
2022/11/14 11:46:59;;;;;;;2.38;1.65;;;9.60;99.90;;;;;;6259094;22;20024;-85
2022/11/14 11:49:51;;;;;;;2.17;1.77;;;9.60;99.90;;;;;;6278161;22;20034;-85
2022/11/14 11:52:53;;;;;;;2.97;2.17;;;9.60;99.90;;;;;;6253646;22;20318;-84
2022/11/14 11:55:45;;;;;;;2.10;1.90;;;9.60;99.90;;;;;;6256017;22;20384;-83
2022/11/14 11:58:42;;;;;;;;;;;9.70;99.90;;;;;;6276047;22;20034;-84
2022/11/14 12:01:30;;;;;;;10.80;2.20;;;9.70;34.40;;;;;;6255392;22;19915;-83
2022/11/14 12:04:18;;;;;;;4.70;2.17;;;9.80;1.00;;;;;;6276048;22;20024;-83
2022/11/14 12:07:23;;;;;;;4.38;1.75;;;9.90;1.00;;;;;;6275523;22;20050;-83
2022/11/14 12:10:19;;;;;;;3.17;1.98;;;9.90;1.00;;;;;;6255290;22;20411;-84
2022/11/14 12:13:31;;;;;;;2.40;1.92;;;10.00;1.00;;;;;;6253786;22;20074;-83
2022/11/14 12:16:31;;;;;;;3.70;1.80;;;10.10;1.00;;;;;;6254577;22;20020;-83
2022/11/14 12:19:45;;;;;;;3.00;1.83;;;10.40;99.90;;;;;;6254613;22;20020;-83
2022/11/14 12:23:07;;;;;;;3.30;2.33;;;10.70;99.90;;;;;;6255440;22;20085;-85
2022/11/14 12:26:00;;;;;;;3.45;1.90;;;11.00;99.90;;;;;;6256094;22;20059;-84
2022/11/14 12:29:16;;;;;;;1.95;1.40;;;11.50;1.00;;;;;;6256998;22;20027;-85
2022/11/14 12:32:23;;;;;;;2.28;2.00;;;12.10;99.90;;;;;;6257289;22;20099;-83
2022/11/14 12:35:31;;;;;;;1.73;1.55;;;12.30;99.90;;;;;;6278136;22;20054;-84
2022/11/14 12:38:20;;;;;;;2.53;1.67;;;12.00;99.90;;;;;;6256351;22;20047;-84
2022/11/14 12:41:08;;;;;;;3.63;1.88;;;11.90;99.90;;;;;;6276875;22;20031;-82
2022/11/14 12:44:31;;;;;;;2.03;1.40;;;11.90;99.90;;;;;;6255462;22;20019;-82
2022/11/14 12:47:21;;;;;;;2.20;1.55;;;13.10;99.90;;;;;;6255882;22;20327;-85
2022/11/14 12:50:41;;;;;;;1.85;1.40;;;14.50;1.00;;;;;;6253891;22;20507;-84
2022/11/14 12:53:35;;;;;;;2.50;1.30;;;15.00;1.00;;;;;;6276665;22;20019;-85
2022/11/14 12:56:25;;;;;;;1.58;1.30;;;15.50;99.90;;;;;;6278476;22;20312;-84
2022/11/14 12:59:33;;;;;;;4.38;1.73;;;15.20;99.90;;;;;;6255200;22;20106;-86
2022/11/14 13:02:45;;;;;;;2.53;1.73;;;15.20;99.90;;;;;;6255056;22;20020;-84
2022/11/14 13:06:20;;;;;;;4.68;1.63;;;15.20;99.90;;;;;;6256938;22;20023;-85
2022/11/14 13:09:37;;;;;;;2.35;1.60;;;15.00;99.90;;;;;;6187021;22;20031;-84
2022/11/14 13:22:37;;;;;;;7.43;1.98;;;12.80;99.90;;;;;;6274661;22;20030;-84
2022/11/14 13:25:26;;;;;;;2.63;1.80;;;13.70;99.90;;;;;;6255167;22;20027;-85
2022/11/14 13:28:47;;;;;;;2.85;2.00;;;13.80;99.90;;;;;;6253938;22;20046;-84
2022/11/14 13:31:42;;;;;;;6.00;2.15;;;13.60;99.90;;;;;;6255899;22;20020;-83
2022/11/14 13:34:41;;;;;;;3.42;2.22;;;13.30;99.90;;;;;;6254349;22;20027;-84
2022/11/14 13:37:39;;;;;;;4.30;2.08;;;13.50;99.90;;;;;;6274742;22;20024;-83
2022/11/14 13:40:38;;;;;;;2.85;2.15;;;13.90;99.90;;;;;;6255335;22;20027;-83
2022/11/14 13:43:53;;;;;;;4.00;1.90;;;14.30;99.90;;;;;;6253995;22;20035;-85
2022/11/14 13:47:06;;;;;;;3.03;1.90;;;14.30;99.90;;;;;;6255829;22;20312;-85
2022/11/14 13:50:07;;;;;;;2.60;2.10;;;14.70;99.90;;;;;;6275819;22;20112;-85
2022/11/14 13:52:55;;;;;;;5.63;2.00;;;15.10;99.90;;;;;;6275594;22;20027;-85
2022/11/14 13:55:53;;;;;;;2.80;1.90;;;15.30;99.90;;;;;;6255252;22;20031;-82
2022/11/14 13:59:21;;;;;;;3.25;2.00;;;15.20;99.90;;;;;;6255435;22;20300;-85
2022/11/14 14:02:12;;;;;;;3.72;2.35;;;15.00;99.90;;;;;;6159197;23;20037;-86
2022/11/14 14:05:02;;;;;;;4.63;3.10;;;13.70;99.90;;;;;;6280744;22;20268;-83
2022/11/14 14:08:28;;;;;;;5.78;2.88;;;12.90;99.90;;;;;;6262835;22;20081;-84
2022/11/14 14:11:54;;;;;;;3.63;2.17;;;12.60;99.90;;;;;;6261868;22;20028;-85
2022/11/14 14:14:58;;;;;;;16.77;2.83;;;13.00;99.90;;;;;;6260817;22;20067;-84
2022/11/14 14:18:13;;;;;;;5.97;2.47;;;13.60;99.90;;;;;;6265068;22;20019;-84
2022/11/14 14:21:09;;;;;;;5.18;2.78;;;13.10;99.90;;;;;;6291133;22;20060;-84
2022/11/14 14:24:18;;;;;;;3.15;2.63;;;12.40;99.90;;;;;;6273546;22;20038;-83
2022/11/14 14:27:23;;;;;;;5.05;2.65;;;12.00;99.90;;;;;;6276428;22;20027;-86
2022/11/14 14:30:19;;;;;;;4.55;2.83;;;12.20;99.90;;;;;;6273775;22;20059;-87
2022/11/14 14:33:14;;;;;;;6.00;2.97;;;13.10;99.90;;;;;;6263719;22;20065;-86
2022/11/14 14:36:25;;;;;;;14.57;4.97;;;12.70;99.90;;;;;;6263511;22;20051;-85
2022/11/14 14:39:24;;;;;;;4.53;2.53;;;12.00;99.90;;;;;;6286004;22;20415;-85
2022/11/14 14:42:17;;;;;;;4.18;2.83;;;11.60;99.90;;;;;;6261420;22;20046;-86
2022/11/14 14:45:14;;;;;;;7.63;3.38;;;11.30;1.00;;;;;;6282206;22;20179;-86
2022/11/14 14:48:03;;;;;;;6.65;2.83;;;11.10;1.00;;;;;;6254434;22;20368;-82
2022/11/14 14:50:57;;;;;;;7.45;3.40;;;11.20;1.00;;;;;;6278940;22;20099;-83
2022/11/14 14:53:52;;;;;;;8.73;3.92;;;11.10;1.00;;;;;;6257279;22;20124;-83
2022/11/14 14:56:59;;;;;;;7.43;3.00;;;11.00;1.00;;;;;;6254087;22;20032;-83
2022/11/14 14:59:57;;;;;;;8.65;3.40;;;11.00;1.00;;;;;;6257965;22;20173;-83
2022/11/14 15:02:45;;;;;;;6.10;3.08;;;10.90;1.00;;;;;;6234434;22;20202;-85
2022/11/14 15:05:37;;;;;;;6.97;3.17;;;10.90;1.00;;;;;;6258895;22;20038;-87
2022/11/14 15:08:27;;;;;;;4.82;2.90;;;11.20;1.00;;;;;;6258444;22;20081;-85
2022/11/14 15:11:30;;;;;;;9.57;3.05;;;11.30;1.00;;;;;;6263555;22;20480;-83
2022/11/14 15:14:22;;;;;;;6.93;3.38;;;11.40;1.00;;;;;;6256074;22;20043;-82
2022/11/14 15:17:15;;;;;;;14.98;4.88;;;11.30;1.00;;;;;;6257765;22;20099;-83
2022/11/14 15:20:25;;;;;;;9.30;3.35;;;11.30;1.00;;;;;;6255379;22;20019;-81